createdAt,value
2019-05-06T00:00:17.403Z,4.87
2019-05-06T00:04:24.509Z,5.20
2019-05-06T00:08:28.932Z,4.70
2019-05-06T00:12:33.853Z,4.78
2019-05-06T00:16:39.804Z,5.37
2019-05-06T00:20:44.814Z,4.58
2019-05-06T00:25:05.600Z,5.60
2019-05-06T00:29:14.563Z,5.03
2019-05-06T00:33:19.400Z,4.40
2019-05-06T00:37:24.533Z,5.00
2019-05-06T00:41:35.842Z,4.62
2019-05-06T00:45:38.857Z,4.62
2019-05-06T00:49:43.804Z,4.30
2019-05-06T00:53:54.439Z,4.53
2019-05-06T00:58:03.903Z,3.98
2019-05-06T01:02:08.136Z,4.83
2019-05-06T01:06:14.237Z,4.90
2019-05-06T01:10:19.340Z,4.72
2019-05-06T01:14:30.158Z,4.55
2019-05-06T01:18:35.002Z,4.92
2019-05-06T01:22:41.224Z,5.67
2019-05-06T01:26:48.035Z,5.65
2019-05-06T01:30:53.567Z,6.25
2019-05-06T01:34:58.898Z,6.17
2019-05-06T01:39:17.163Z,5.92
2019-05-06T01:43:26.997Z,5.75
2019-05-06T01:47:31.785Z,5.55
2019-05-06T01:51:36.718Z,6.42
2019-05-06T01:55:43.810Z,6.17
2019-05-06T01:59:48.933Z,6.25
2019-05-06T02:03:53.997Z,5.95
2019-05-06T02:07:58.919Z,6.33
2019-05-06T02:12:04.751Z,5.80
2019-05-06T02:16:10.155Z,6.60
2019-05-06T02:20:15.942Z,6.42
2019-05-06T02:24:24.766Z,5.97
2019-05-06T02:28:29.611Z,5.47
2019-05-06T02:32:55.385Z,6.33
2019-05-06T02:37:09.133Z,5.95
2019-05-06T02:41:13.979Z,5.72
2019-05-06T02:45:19.165Z,6.00
2019-05-06T02:49:34.343Z,5.70
2019-05-06T02:53:42.730Z,5.65
2019-05-06T02:57:46.077Z,5.72
2019-05-06T03:01:53.539Z,5.85
2019-05-06T03:05:57.402Z,5.67
2019-05-06T03:10:04.198Z,5.70
2019-05-06T03:14:09.232Z,5.72
2019-05-06T03:18:14.999Z,5.47
2019-05-06T03:22:34.122Z,5.40
2019-05-06T03:26:37.462Z,5.17
2019-05-06T03:30:45.964Z,5.47
2019-05-06T03:35:13.602Z,5.87
2019-05-06T03:38:55.638Z,5.80
2019-05-06T03:43:02.774Z,5.25
2019-05-06T03:47:29.167Z,5.47
2019-05-06T03:51:34.508Z,5.55
2019-05-06T03:55:46.519Z,5.50
2019-05-06T03:59:49.430Z,5.05
2019-05-06T04:03:57.196Z,5.30
2019-05-06T04:08:03.828Z,5.25
2019-05-06T04:12:09.049Z,5.22
2019-05-06T04:16:33.895Z,5.05
2019-05-06T04:20:46.800Z,4.83
2019-05-06T04:25:07.656Z,4.97
2019-05-06T04:29:13.353Z,4.60
2019-05-06T04:33:20.108Z,4.70
2019-05-06T04:37:25.677Z,4.90
2019-05-06T04:41:33.833Z,4.83
2019-05-06T04:45:37.857Z,4.78
2019-05-06T04:49:43.692Z,4.58
2019-05-06T04:53:49.313Z,4.90
2019-05-06T04:57:54.834Z,5.10
2019-05-06T05:02:02.599Z,5.03
2019-05-06T05:06:06.762Z,5.05
2019-05-06T05:10:18.065Z,5.30
2019-05-06T05:14:32.803Z,4.80
2019-05-06T05:18:53.016Z,5.33
2019-05-06T05:22:58.904Z,4.87
2019-05-06T05:27:03.894Z,6.15
2019-05-06T05:31:08.781Z,5.33
2019-05-06T05:35:13.858Z,5.75
2019-05-06T05:39:18.848Z,5.85
2019-05-06T05:43:42.456Z,5.55
2019-05-06T05:47:49.163Z,5.85
2019-05-06T05:51:54.315Z,5.70
2019-05-06T05:56:02.536Z,5.83
2019-05-06T06:00:08.338Z,6.47
2019-05-06T06:04:13.238Z,5.87
2019-05-06T06:08:18.160Z,6.00
2019-05-06T06:12:23.368Z,5.33
2019-05-06T06:16:42.184Z,5.90
2019-05-06T06:21:17.726Z,5.35
2019-05-06T06:25:14.230Z,5.62
2019-05-06T06:29:18.925Z,5.30
2019-05-06T06:33:24.901Z,5.08
2019-05-06T06:37:48.929Z,5.37
2019-05-06T06:41:53.890Z,5.35
2019-05-06T06:46:02.470Z,4.97
2019-05-06T06:50:08.078Z,4.95
2019-05-06T06:54:13.024Z,4.80
2019-05-06T06:58:36.383Z,5.03
2019-05-06T07:03:02.580Z,4.80
2019-05-06T07:07:07.497Z,4.20
2019-05-06T07:11:13.038Z,3.62
2019-05-06T07:15:18.134Z,3.85
2019-05-06T07:19:34.720Z,3.35
2019-05-06T07:23:42.023Z,3.50
2019-05-06T07:27:46.582Z,3.62
2019-05-06T07:31:53.281Z,4.05
2019-05-06T07:35:58.104Z,3.75
2019-05-06T07:40:03.780Z,3.75
2019-05-06T07:44:38.888Z,3.70
2019-05-06T07:48:43.856Z,4.05
2019-05-06T07:53:08.324Z,2.08
2019-05-06T07:57:13.236Z,2.27
2019-05-06T08:01:18.131Z,2.55
2019-05-06T08:05:22.976Z,2.70
2019-05-06T08:09:27.876Z,2.50
2019-05-06T08:13:32.957Z,2.33
2019-05-06T08:17:42.426Z,2.08
2019-05-06T08:21:49.668Z,2.00
2019-05-06T08:26:09.154Z,2.50
2019-05-06T08:30:02.425Z,1.50
2019-05-06T08:34:07.506Z,1.90
2019-05-06T08:38:12.419Z,1.50
2019-05-06T08:42:17.387Z,2.08
2019-05-06T08:46:23.742Z,1.80
2019-05-06T08:50:52.800Z,1.92
2019-05-06T08:55:00.413Z,1.72
2019-05-06T08:59:05.217Z,1.80
2019-05-06T09:03:10.097Z,1.30
2019-05-06T09:07:15.001Z,1.35
2019-05-06T09:11:23.632Z,1.40
2019-05-06T09:15:26.581Z,1.70
2019-05-06T09:19:33.217Z,1.77
2019-05-06T09:23:37.934Z,1.98
2019-05-06T09:28:02.728Z,1.90
2019-05-06T09:32:13.955Z,1.85
2019-05-06T09:36:19.205Z,1.90
2019-05-06T09:40:24.063Z,2.27
2019-05-06T09:44:28.907Z,1.90
2019-05-06T09:48:52.809Z,1.77
2019-05-06T09:52:58.107Z,2.00
2019-05-06T09:57:06.714Z,2.22
2019-05-06T10:01:13.146Z,1.90
2019-05-06T10:05:18.209Z,2.10
2019-05-06T10:09:24.897Z,2.50
2019-05-06T10:13:29.622Z,2.12
2019-05-06T10:17:34.868Z,2.20
2019-05-06T10:21:39.759Z,1.90
2019-05-06T10:25:45.291Z,1.98
2019-05-06T10:29:59.498Z,2.37
2019-05-06T10:34:13.984Z,2.25
2019-05-06T10:38:54.946Z,2.20
2019-05-06T10:43:35.141Z,2.50
2019-05-06T10:47:42.215Z,2.25
2019-05-06T10:51:52.997Z,2.90
2019-05-06T10:56:02.309Z,2.10
2019-05-06T11:00:08.534Z,2.12
2019-05-06T11:04:13.465Z,2.30
2019-05-06T11:08:18.441Z,2.35
2019-05-06T11:12:23.266Z,2.35
2019-05-06T11:16:28.148Z,2.55
2019-05-06T11:20:33.555Z,2.40
2019-05-06T11:24:38.471Z,2.40
2019-05-06T11:28:53.241Z,2.33
2019-05-06T11:33:04.852Z,2.12
2019-05-06T11:37:42.301Z,2.42
2019-05-06T11:41:35.907Z,2.50
2019-05-06T11:45:42.603Z,2.35
2019-05-06T11:49:56.421Z,2.25
2019-05-06T11:54:04.449Z,2.10
2019-05-06T11:58:27.247Z,1.90
2019-05-06T12:02:33.005Z,2.10
2019-05-06T12:06:38.197Z,2.02
2019-05-06T12:10:43.255Z,2.08
2019-05-06T12:14:48.098Z,2.60
2019-05-06T12:18:54.097Z,2.10
2019-05-06T12:22:58.847Z,2.25
2019-05-06T12:27:03.740Z,1.95
2019-05-06T12:31:08.636Z,2.90
2019-05-06T12:35:13.837Z,2.12
2019-05-06T12:39:26.198Z,2.17
2019-05-06T12:43:45.608Z,2.58
2019-05-06T12:48:03.175Z,2.27
2019-05-06T12:52:09.286Z,2.00
2019-05-06T12:56:14.392Z,2.35
2019-05-06T13:00:19.444Z,2.40
2019-05-06T13:04:43.728Z,2.00
2019-05-06T13:08:49.779Z,2.25
2019-05-06T13:12:39.282Z,2.22
2019-05-06T13:16:44.278Z,2.58
2019-05-06T13:20:51.853Z,2.40
2019-05-06T13:24:55.785Z,2.58
2019-05-06T13:29:04.529Z,2.52
2019-05-06T13:33:15.744Z,2.65
2019-05-06T13:37:22.918Z,2.65
2019-05-06T13:41:27.403Z,2.62
2019-05-06T13:45:35.373Z,2.80
2019-05-06T13:49:44.771Z,2.70
2019-05-06T13:53:49.592Z,3.20
2019-05-06T13:57:54.402Z,2.62
2019-05-06T14:02:17.133Z,3.92
2019-05-06T14:06:21.953Z,3.30
2019-05-06T14:10:26.768Z,2.67
2019-05-06T14:14:32.211Z,2.92
2019-05-06T14:18:37.760Z,2.47
2019-05-06T14:22:43.871Z,2.98
2019-05-06T14:26:57.395Z,2.70
2019-05-06T14:31:08.446Z,2.95
2019-05-06T14:35:13.369Z,2.80
2019-05-06T14:39:23.888Z,3.17
2019-05-06T14:43:28.985Z,2.90
2019-05-06T14:47:36.625Z,2.87
2019-05-06T14:51:42.632Z,2.90
2019-05-06T14:55:48.793Z,3.20
2019-05-06T14:59:55.554Z,2.83
2019-05-06T15:04:00.186Z,2.50
2019-05-06T15:08:05.264Z,2.80
2019-05-06T15:12:10.107Z,2.70
2019-05-06T15:16:14.937Z,3.05
2019-05-06T15:20:22.633Z,2.90
2019-05-06T15:24:27.444Z,2.55
2019-05-06T15:28:33.820Z,2.77
2019-05-06T15:32:39.804Z,2.50
2019-05-06T15:36:52.793Z,3.30
2019-05-06T15:40:58.205Z,3.90
2019-05-06T15:45:03.304Z,4.40
2019-05-06T15:49:08.149Z,4.33
2019-05-06T15:53:13.134Z,3.95
2019-05-06T15:57:18.038Z,4.30
2019-05-06T16:01:23.471Z,4.20
2019-05-06T16:05:30.780Z,4.15
2019-05-06T16:09:35.170Z,3.83
2019-05-06T16:13:42.183Z,4.00
2019-05-06T16:17:46.445Z,3.37
2019-05-06T16:21:52.386Z,3.52
2019-05-06T16:25:57.793Z,3.47
2019-05-06T16:30:03.458Z,2.90
2019-05-06T16:34:09.357Z,3.40
2019-05-06T16:38:14.271Z,2.58
2019-05-06T16:42:19.177Z,3.00
2019-05-06T16:46:24.045Z,3.00
2019-05-06T16:50:29.765Z,2.95
2019-05-06T16:54:35.546Z,2.60
2019-05-06T16:58:47.181Z,2.70
2019-05-06T17:03:00.278Z,2.58
2019-05-06T17:07:06.671Z,2.60
2019-05-06T17:11:26.151Z,3.33
2019-05-06T17:15:19.041Z,2.90
2019-05-06T17:19:24.109Z,2.80
2019-05-06T17:23:28.926Z,3.30
2019-05-06T17:27:35.213Z,3.75
2019-05-06T17:31:57.728Z,3.52
2019-05-06T17:36:03.145Z,4.33
2019-05-06T17:40:13.922Z,3.80
2019-05-06T17:44:19.140Z,3.92
2019-05-06T17:48:29.857Z,4.40
2019-05-06T17:52:35.022Z,4.53
2019-05-06T17:56:41.892Z,5.03
2019-05-06T18:00:46.791Z,4.72
2019-05-06T18:04:53.234Z,5.62
2019-05-06T18:08:58.724Z,5.40
2019-05-06T18:13:03.644Z,5.33
2019-05-06T18:17:09.762Z,5.67
2019-05-06T18:21:14.565Z,6.30
2019-05-06T18:25:38.917Z,6.00
2019-05-06T18:29:44.261Z,5.72
2019-05-06T18:33:49.953Z,5.60
2019-05-06T18:37:54.788Z,6.15
2019-05-06T18:42:13.464Z,5.40
2019-05-06T18:46:06.456Z,5.75
2019-05-06T18:50:12.554Z,5.53
2019-05-06T18:54:18.037Z,5.58
2019-05-06T18:58:22.948Z,5.85
2019-05-06T19:02:27.892Z,5.80
2019-05-06T19:06:32.999Z,5.80
2019-05-06T19:10:38.046Z,6.28
2019-05-06T19:14:44.151Z,5.83
2019-05-06T19:18:49.998Z,6.25
2019-05-06T19:22:59.667Z,5.95
2019-05-06T19:27:24.707Z,6.28
2019-05-06T19:31:36.323Z,6.05
2019-05-06T19:35:45.577Z,6.30
2019-05-06T19:39:52.531Z,6.37
2019-05-06T19:43:57.756Z,7.12
2019-05-06T19:48:03.051Z,7.17
2019-05-06T19:52:08.221Z,7.10
2019-05-06T19:56:13.364Z,7.05
2019-05-06T20:00:20.343Z,7.20
2019-05-06T20:04:25.360Z,7.20
2019-05-06T20:08:42.340Z,6.00
2019-05-06T20:13:02.788Z,6.53
2019-05-06T20:17:03.569Z,7.25
2019-05-06T20:21:08.569Z,6.42
2019-05-06T20:25:16.580Z,6.40
2019-05-06T20:29:22.674Z,6.28
2019-05-06T20:33:28.940Z,6.55
2019-05-06T20:37:35.892Z,6.20
2019-05-06T20:41:42.503Z,6.53
2019-05-06T20:45:47.873Z,6.12
2019-05-06T20:49:53.812Z,6.20
2019-05-06T20:53:58.752Z,6.12
2019-05-06T20:58:03.580Z,5.90
2019-05-06T21:02:08.317Z,5.45
2019-05-06T21:06:13.377Z,6.08
2019-05-06T21:10:18.342Z,6.15
2019-05-06T21:14:23.344Z,6.70
2019-05-06T21:18:29.217Z,5.65
2019-05-06T21:22:34.124Z,5.70
2019-05-06T21:26:42.471Z,6.00
2019-05-06T21:30:46.270Z,5.15
2019-05-06T21:34:52.500Z,4.75
2019-05-06T21:38:57.578Z,5.60
2019-05-06T21:43:02.497Z,5.30
2019-05-06T21:47:08.517Z,4.78
2019-05-06T21:51:13.419Z,4.80
2019-05-06T21:55:18.485Z,5.30
2019-05-06T21:59:23.387Z,4.97
2019-05-06T22:03:29.086Z,4.42
2019-05-06T22:07:35.884Z,5.35
2019-05-06T22:11:59.824Z,5.15
2019-05-06T22:16:05.055Z,4.55
2019-05-06T22:20:11.949Z,4.65
2019-05-06T22:24:18.470Z,4.65
2019-05-06T22:28:23.370Z,4.28
2019-05-06T22:32:28.331Z,5.00
2019-05-06T22:36:33.358Z,4.25
2019-05-06T22:40:38.250Z,4.50
2019-05-06T22:44:43.346Z,4.62
2019-05-06T22:48:49.056Z,4.50
2019-05-06T22:52:53.870Z,4.90
2019-05-06T22:57:02.337Z,4.35
2019-05-06T23:01:14.337Z,4.40
2019-05-06T23:09:24.892Z,4.42
2019-05-06T23:13:30.040Z,4.62
2019-05-06T23:17:56.111Z,4.33
2019-05-06T23:22:04.014Z,4.53
2019-05-06T23:26:18.447Z,4.08
2019-05-06T23:30:23.703Z,4.35
2019-05-06T23:34:29.957Z,4.67
2019-05-06T23:39:12.535Z,4.25
2019-05-06T23:43:53.198Z,4.35
2019-05-06T23:48:33.975Z,4.55
2019-05-06T23:53:15.033Z,3.98
2019-05-06T23:57:18.457Z,4.53
